Time;durP1;ratioP1;P1;durP2;ratioP2;P2;SDS_P1;SDS_P2;PMS_P1;PMS_P2;Temp;Humidity;BMP_temperature;BMP_pressure;BME280_temperature;BME280_humidity;BME280_pressure;Samples;Min_cycle;Max_cycle;Signal;HPM_P1;HPM_P2
2023/09/06 00:01:25;;;;;;;13.43;9.77;;;16.00;99.90;;;;;;5015859;28;20042;-69
2023/09/06 00:03:51;;;;;;;11.65;9.05;;;15.90;99.90;;;;;;5015963;28;20088;-69
2023/09/06 00:06:16;;;;;;;13.75;9.95;;;15.80;99.90;;;;;;5016182;28;20129;-69
2023/09/06 00:08:43;;;;;;;15.02;10.80;;;15.80;99.90;;;;;;5016254;28;20084;-69
2023/09/06 00:11:09;;;;;;;13.57;10.10;;;16.00;99.90;;;;;;5016224;28;20336;-68
2023/09/06 00:13:35;;;;;;;14.02;10.32;;;15.90;99.90;;;;;;5016233;28;20026;-69
2023/09/06 00:16:03;;;;;;;13.05;10.32;;;15.80;99.90;;;;;;5016161;28;20029;-69
2023/09/06 00:18:29;;;;;;;13.10;9.30;;;15.80;99.90;;;;;;5016044;28;20040;-69
2023/09/06 00:20:57;;;;;;;13.57;9.35;;;15.70;99.90;;;;;;5016125;28;20479;-68
2023/09/06 00:23:27;;;;;;;13.60;9.07;;;15.70;99.90;;;;;;5016005;28;20076;-69
2023/09/06 00:25:56;;;;;;;10.32;9.15;;;15.60;99.90;;;;;;5035742;28;20025;-69
2023/09/06 00:28:25;;;;;;;13.57;9.25;;;15.50;99.90;;;;;;5035557;28;20036;-69
2023/09/06 00:30:52;;;;;;;12.40;8.75;;;15.50;99.90;;;;;;5035767;28;20467;-69
2023/09/06 00:33:18;;;;;;;13.00;9.88;;;15.40;99.90;;;;;;5034228;28;20419;-69
2023/09/06 00:35:44;;;;;;;12.05;9.25;;;15.40;99.90;;;;;;5035617;28;20084;-68
2023/09/06 00:38:10;;;;;;;11.65;8.80;;;15.30;99.90;;;;;;5035840;28;20037;-69
2023/09/06 00:40:37;;;;;;;11.75;9.68;;;15.20;99.90;;;;;;5035284;28;20083;-68
2023/09/06 00:43:05;;;;;;;11.20;8.75;;;15.20;99.90;;;;;;5035426;28;20040;-69
2023/09/06 00:45:36;;;;;;;12.02;9.15;;;15.30;99.90;;;;;;5035533;28;20322;-68
2023/09/06 00:48:05;;;;;;;15.00;9.05;;;15.20;99.90;;;;;;5035438;28;20079;-68
2023/09/06 00:50:34;;;;;;;10.38;9.23;;;15.20;99.90;;;;;;5035223;28;20108;-68
2023/09/06 00:53:00;;;;;;;12.57;9.35;;;15.20;99.90;;;;;;5030361;28;20030;-69
2023/09/06 00:55:26;;;;;;;11.77;9.10;;;15.20;99.90;;;;;;5015293;28;20487;-68
2023/09/06 00:57:53;;;;;;;12.35;9.65;;;15.20;99.90;;;;;;5014345;28;20034;-68
2023/09/06 01:00:21;;;;;;;11.88;9.32;;;15.20;99.90;;;;;;5015625;28;20022;-68
2023/09/06 01:02:47;;;;;;;13.60;9.73;;;15.10;99.90;;;;;;5015227;28;20022;-68
2023/09/06 01:05:15;;;;;;;13.68;9.27;;;15.10;99.90;;;;;;5015287;28;20046;-68
2023/09/06 01:07:47;;;;;;;11.88;9.23;;;15.10;99.90;;;;;;5013928;28;20025;-69
2023/09/06 01:10:12;;;;;;;12.98;9.35;;;15.10;99.90;;;;;;5015099;28;20030;-68
2023/09/06 01:12:38;;;;;;;11.00;9.18;;;15.00;99.90;;;;;;5015033;28;20073;-68
2023/09/06 01:15:05;;;;;;;11.50;9.15;;;15.00;99.90;;;;;;5015064;28;20021;-68
2023/09/06 01:17:35;;;;;;;13.50;8.98;;;14.90;99.90;;;;;;5015105;28;20530;-69
2023/09/06 01:20:25;;;;;;;10.05;8.60;;;14.90;99.90;;;;;;5015126;28;20038;-68
2023/09/06 01:23:04;;;;;;;10.30;8.65;;;14.90;99.90;;;;;;5015084;28;20034;-68
2023/09/06 01:25:30;;;;;;;13.52;8.93;;;14.90;99.90;;;;;;5032358;28;20218;-68
2023/09/06 01:27:57;;;;;;;12.10;8.80;;;14.90;99.90;;;;;;5034541;28;20033;-69
2023/09/06 01:30:29;;;;;;;13.20;9.05;;;14.90;99.90;;;;;;5034573;28;20049;-68
2023/09/06 01:32:55;;;;;;;10.55;8.23;;;14.80;99.90;;;;;;5033399;28;20032;-68
2023/09/06 01:35:21;;;;;;;14.93;8.98;;;14.80;99.90;;;;;;5034630;28;20036;-68
2023/09/06 01:37:50;;;;;;;11.25;8.40;;;14.80;99.90;;;;;;5034617;28;20379;-69
2023/09/06 01:40:17;;;;;;;10.27;8.32;;;14.70;99.90;;;;;;5033209;28;20099;-69
2023/09/06 01:42:47;;;;;;;10.80;8.57;;;14.70;99.90;;;;;;5033229;28;20034;-68
2023/09/06 01:45:17;;;;;;;11.80;8.65;;;14.60;99.90;;;;;;5034462;28;20033;-68
2023/09/06 01:47:46;;;;;;;12.02;8.20;;;14.60;99.90;;;;;;5033221;28;20025;-68
2023/09/06 01:50:14;;;;;;;12.25;8.50;;;14.60;99.90;;;;;;5034275;28;20044;-68
2023/09/06 01:52:40;;;;;;;12.13;9.48;;;14.50;99.90;;;;;;5030927;28;20116;-68
2023/09/06 01:55:08;;;;;;;12.35;8.88;;;14.40;99.90;;;;;;5013429;28;20037;-68
2023/09/06 01:57:34;;;;;;;10.63;9.07;;;14.50;99.90;;;;;;5014891;28;20030;-68
2023/09/06 02:00:00;;;;;;;15.02;9.60;;;14.40;99.90;;;;;;5013460;28;20042;-68
2023/09/06 02:02:26;;;;;;;13.35;10.25;;;14.40;99.90;;;;;;5013265;28;20037;-68
2023/09/06 02:04:53;;;;;;;15.60;9.32;;;14.40;99.90;;;;;;5014284;28;20407;-68
2023/09/06 02:07:19;;;;;;;15.55;10.40;;;14.50;99.90;;;;;;5013274;28;20484;-68
2023/09/06 02:09:45;;;;;;;13.63;10.50;;;14.50;99.90;;;;;;5014613;28;20114;-68
2023/09/06 02:12:14;;;;;;;12.00;8.98;;;14.50;99.90;;;;;;5014236;28;20026;-68
2023/09/06 02:14:40;;;;;;;11.43;8.98;;;14.40;99.90;;;;;;5013144;28;20029;-68
2023/09/06 02:17:06;;;;;;;12.63;9.23;;;14.40;99.90;;;;;;5014418;28;20033;-68
2023/09/06 02:19:32;;;;;;;13.98;8.60;;;14.40;99.90;;;;;;5014290;28;20072;-68
2023/09/06 02:22:01;;;;;;;11.50;8.75;;;14.30;99.90;;;;;;5014423;28;20477;-68
2023/09/06 02:24:27;;;;;;;11.40;8.98;;;14.40;99.90;;;;;;5021738;28;20064;-68
2023/09/06 02:26:53;;;;;;;12.45;9.15;;;14.30;99.90;;;;;;5037555;28;20029;-68
2023/09/06 02:29:20;;;;;;;11.55;9.30;;;14.30;99.90;;;;;;5037941;28;20029;-68
2023/09/06 02:31:46;;;;;;;14.35;9.48;;;14.20;99.90;;;;;;5036799;28;20551;-68
2023/09/06 02:34:12;;;;;;;12.07;8.80;;;14.20;99.90;;;;;;5037917;28;20072;-68
2023/09/06 02:36:38;;;;;;;10.93;8.68;;;14.20;99.90;;;;;;5036675;28;20029;-68
2023/09/06 02:39:04;;;;;;;11.57;9.07;;;14.20;99.90;;;;;;5037803;28;20087;-68
2023/09/06 02:41:30;;;;;;;12.13;8.63;;;14.10;99.90;;;;;;5037577;28;20065;-68
2023/09/06 02:43:56;;;;;;;13.63;9.00;;;14.10;99.90;;;;;;5037720;28;20475;-68
2023/09/06 02:46:22;;;;;;;11.10;9.35;;;14.10;99.90;;;;;;5036281;28;20057;-68
2023/09/06 02:48:48;;;;;;;12.18;9.07;;;14.10;99.90;;;;;;5036404;28;20040;-68
2023/09/06 02:51:15;;;;;;;13.52;9.18;;;14.10;99.90;;;;;;5037569;28;20025;-68
2023/09/06 02:53:45;;;;;;;10.85;8.50;;;14.20;99.90;;;;;;5025768;28;20462;-68
2023/09/06 02:56:15;;;;;;;12.07;8.80;;;14.20;99.90;;;;;;5017573;28;20101;-68
2023/09/06 02:58:42;;;;;;;10.85;8.52;;;14.10;99.90;;;;;;5017875;28;20030;-68
2023/09/06 03:01:19;;;;;;;10.13;8.45;;;14.10;99.90;;;;;;5016334;28;20118;-68
2023/09/06 03:03:51;;;;;;;11.38;8.68;;;14.10;99.90;;;;;;5016164;28;20787;-68
2023/09/06 03:06:18;;;;;;;10.05;8.60;;;14.10;99.90;;;;;;5016282;28;20331;-68
2023/09/06 03:08:46;;;;;;;11.32;8.85;;;14.10;99.90;;;;;;5015984;28;20380;-68
2023/09/06 03:11:15;;;;;;;10.98;8.93;;;14.10;99.90;;;;;;5016096;28;20076;-68
2023/09/06 03:13:46;;;;;;;10.70;9.10;;;14.10;99.90;;;;;;5016348;28;20447;-68
2023/09/06 03:16:13;;;;;;;11.55;9.65;;;14.10;99.90;;;;;;5017064;28;20026;-68
2023/09/06 03:18:42;;;;;;;16.15;9.30;;;14.10;99.90;;;;;;5016130;28;20110;-68
2023/09/06 03:21:12;;;;;;;16.15;10.02;;;14.20;99.90;;;;;;5015987;28;20057;-68
2023/09/06 03:23:38;;;;;;;10.75;9.40;;;14.20;99.90;;;;;;5018091;28;20040;-68
2023/09/06 03:26:09;;;;;;;13.07;8.95;;;14.10;99.90;;;;;;5035792;28;20029;-68
2023/09/06 03:28:40;;;;;;;12.80;9.82;;;14.10;99.90;;;;;;5036822;28;20029;-68
2023/09/06 03:31:12;;;;;;;10.85;8.88;;;14.10;99.90;;;;;;5035508;28;20090;-68
2023/09/06 03:33:39;;;;;;;12.57;9.43;;;14.10;99.90;;;;;;5036801;28;20029;-68
2023/09/06 03:36:07;;;;;;;10.57;8.93;;;14.20;99.90;;;;;;5035411;28;20036;-68
2023/09/06 03:38:34;;;;;;;14.90;10.25;;;14.20;99.90;;;;;;5035373;28;20034;-68
2023/09/06 03:41:02;;;;;;;10.73;9.48;;;14.30;99.90;;;;;;5035428;28;20042;-68
2023/09/06 03:43:32;;;;;;;13.27;9.77;;;14.30;99.90;;;;;;5037060;28;20368;-68
2023/09/06 03:45:59;;;;;;;12.63;9.10;;;14.40;99.90;;;;;;5036595;28;20521;-68
2023/09/06 03:48:27;;;;;;;11.48;9.13;;;14.40;99.90;;;;;;5035116;28;20454;-68
2023/09/06 03:50:58;;;;;;;13.98;9.68;;;14.50;99.90;;;;;;5035203;28;20071;-68
2023/09/06 03:53:27;;;;;;;14.25;9.02;;;14.50;99.90;;;;;;5027016;28;20025;-68
2023/09/06 03:55:57;;;;;;;11.52;9.27;;;14.60;99.90;;;;;;5015436;28;20037;-68
2023/09/06 03:58:25;;;;;;;11.60;8.95;;;14.50;99.90;;;;;;5015135;28;20061;-68
2023/09/06 04:00:52;;;;;;;11.90;9.30;;;14.60;99.90;;;;;;5015079;28;20092;-68
2023/09/06 04:03:32;;;;;;;27.08;11.70;;;14.60;99.90;;;;;;5015179;28;20054;-68
2023/09/06 04:06:02;;;;;;;23.73;14.25;;;14.60;99.90;;;;;;5015093;28;20046;-68
2023/09/06 04:08:28;;;;;;;19.60;15.18;;;14.60;99.90;;;;;;5016194;28;20065;-68
2023/09/06 04:10:56;;;;;;;22.73;16.30;;;14.70;99.90;;;;;;5015027;28;20018;-68
2023/09/06 04:13:22;;;;;;;15.35;11.82;;;14.70;99.90;;;;;;5015943;28;20090;-68
2023/09/06 04:15:48;;;;;;;18.50;13.57;;;14.70;99.90;;;;;;5014940;28;20057;-68
2023/09/06 04:18:15;;;;;;;18.48;13.57;;;14.70;99.90;;;;;;5014830;28;20080;-68
2023/09/06 04:20:46;;;;;;;15.70;12.90;;;14.70;99.90;;;;;;5014622;28;20022;-68
2023/09/06 04:23:13;;;;;;;14.18;11.00;;;14.70;99.90;;;;;;5014782;28;20075;-68
2023/09/06 04:25:46;;;;;;;13.82;9.40;;;14.60;99.90;;;;;;5033489;28;20034;-68
2023/09/06 04:28:16;;;;;;;16.65;10.25;;;14.60;99.90;;;;;;5035615;28;20026;-68
2023/09/06 04:30:48;;;;;;;10.88;8.93;;;14.50;99.90;;;;;;5034429;28;20036;-68
2023/09/06 04:33:16;;;;;;;14.65;8.63;;;14.60;99.90;;;;;;5034312;28;20498;-68
2023/09/06 04:35:49;;;;;;;14.73;8.98;;;14.60;99.90;;;;;;5034266;28;20048;-68
2023/09/06 04:38:19;;;;;;;13.43;9.25;;;14.50;99.90;;;;;;5034266;28;20092;-68
2023/09/06 04:40:47;;;;;;;23.65;11.73;;;14.60;99.90;;;;;;5034146;28;20433;-68
2023/09/06 04:43:17;;;;;;;30.02;11.35;;;14.70;99.90;;;;;;5034211;28;20029;-68
2023/09/06 04:45:43;;;;;;;19.15;10.98;;;14.70;99.90;;;;;;5034183;28;20067;-68
2023/09/06 04:48:11;;;;;;;17.98;10.40;;;14.70;99.90;;;;;;5034942;28;20073;-68
2023/09/06 04:50:39;;;;;;;15.27;9.38;;;14.80;99.90;;;;;;5033940;28;20482;-68
2023/09/06 04:53:11;;;;;;;18.23;10.25;;;14.70;99.90;;;;;;5028470;28;20026;-68
2023/09/06 04:55:37;;;;;;;15.20;9.88;;;14.80;99.90;;;;;;5015369;28;20080;-68
2023/09/06 04:58:08;;;;;;;13.95;9.18;;;14.70;99.90;;;;;;5014164;28;20379;-68
2023/09/06 05:00:43;;;;;;;20.48;10.80;;;14.80;99.90;;;;;;5015393;28;20459;-68
2023/09/06 05:03:12;;;;;;;18.48;9.93;;;14.90;99.90;;;;;;5013804;28;20076;-68
2023/09/06 05:05:40;;;;;;;15.05;10.00;;;14.90;99.90;;;;;;5015390;28;20507;-68
2023/09/06 05:08:07;;;;;;;17.05;10.50;;;14.90;99.90;;;;;;5015228;28;20034;-68
2023/09/06 05:10:35;;;;;;;16.52;10.05;;;15.00;99.90;;;;;;5015094;28;20072;-68
2023/09/06 05:13:07;;;;;;;;;;;15.10;99.90;;;;;;5014232;28;20034;-68
2023/09/06 05:15:37;;;;;;;20.35;11.15;;;15.20;99.90;;;;;;5046871;28;20007;-68
2023/09/06 05:18:07;;;;;;;31.42;11.77;;;15.40;99.90;;;;;;5014956;28;20382;-68
2023/09/06 05:20:37;;;;;;;25.67;11.35;;;15.50;99.90;;;;;;5013888;28;20030;-68
2023/09/06 05:23:12;;;;;;;21.33;11.30;;;15.60;99.90;;;;;;5013627;28;20171;-68
2023/09/06 05:25:40;;;;;;;21.00;12.27;;;15.80;99.90;;;;;;5030417;28;20065;-68
2023/09/06 05:28:11;;;;;;;21.95;12.38;;;15.80;99.90;;;;;;5033704;28;20025;-68
2023/09/06 05:30:42;;;;;;;21.17;12.00;;;15.90;99.90;;;;;;5033927;28;20041;-68
2023/09/06 05:33:11;;;;;;;19.23;12.07;;;16.00;99.90;;;;;;5033928;28;20057;-68
2023/09/06 05:35:40;;;;;;;21.00;10.90;;;16.10;99.90;;;;;;5033711;28;20570;-68
2023/09/06 05:38:09;;;;;;;19.13;11.30;;;16.20;99.90;;;;;;5033079;28;20060;-68
2023/09/06 05:40:40;;;;;;;20.40;10.82;;;16.40;99.90;;;;;;5033198;28;20026;-68
2023/09/06 05:43:08;;;;;;;20.63;12.15;;;16.50;99.90;;;;;;5033141;28;20112;-68
2023/09/06 05:45:35;;;;;;;20.35;12.65;;;16.60;99.90;;;;;;5033040;28;20112;-68
2023/09/06 05:48:02;;;;;;;24.73;13.80;;;16.60;99.90;;;;;;5032914;28;20033;-68
2023/09/06 05:50:29;;;;;;;20.85;13.07;;;16.70;99.90;;;;;;5032158;28;20025;-68
2023/09/06 05:52:57;;;;;;;21.77;14.15;;;16.70;99.90;;;;;;5028595;28;20022;-68
2023/09/06 05:55:23;;;;;;;24.50;16.42;;;16.90;99.90;;;;;;5021080;28;20030;-68
2023/09/06 05:57:51;;;;;;;31.55;17.65;;;16.90;99.90;;;;;;5032902;28;20089;-68
2023/09/06 06:00:21;;;;;;;31.33;17.67;;;17.20;99.90;;;;;;5033948;28;20029;-68
2023/09/06 06:02:51;;;;;;;30.00;18.90;;;17.30;99.90;;;;;;5036501;28;20069;-68
2023/09/06 06:05:18;;;;;;;28.48;17.98;;;17.50;99.90;;;;;;5030524;28;20080;-68
2023/09/06 06:07:48;;;;;;;32.47;18.20;;;17.70;99.90;;;;;;5036175;28;20029;-68
2023/09/06 06:10:14;;;;;;;33.80;18.08;;;17.70;99.90;;;;;;5030316;28;20163;-68
2023/09/06 06:12:41;;;;;;;29.30;17.90;;;17.90;99.90;;;;;;5037882;28;20439;-68
2023/09/06 06:15:14;;;;;;;28.98;16.95;;;18.00;99.90;;;;;;5037950;28;20017;-68
2023/09/06 06:17:40;;;;;;;30.55;17.25;;;18.30;99.90;;;;;;5037909;28;20104;-68
2023/09/06 06:20:07;;;;;;;29.95;19.20;;;18.50;99.90;;;;;;5037720;28;20112;-68
2023/09/06 06:22:38;;;;;;;36.15;20.42;;;18.70;99.90;;;;;;5031618;28;20037;-68
2023/09/06 06:25:08;;;;;;;31.08;18.77;;;19.00;99.90;;;;;;5037681;28;20494;-68
2023/09/06 06:27:34;;;;;;;28.55;18.50;;;19.30;99.90;;;;;;5035850;28;20483;-68
2023/09/06 06:30:00;;;;;;;26.77;17.52;;;19.60;99.90;;;;;;5036199;28;20064;-68
2023/09/06 06:32:29;;;;;;;33.40;19.42;;;19.80;99.90;;;;;;5037857;28;20029;-68
2023/09/06 06:34:56;;;;;;;31.10;18.10;;;20.10;99.90;;;;;;5035430;28;20021;-68
2023/09/06 06:37:22;;;;;;;27.48;17.83;;;20.30;99.90;;;;;;5027039;28;20087;-68
2023/09/06 06:39:48;;;;;;;30.92;18.40;;;20.30;99.90;;;;;;5037567;28;20033;-68
2023/09/06 06:42:14;;;;;;;29.27;21.10;;;20.40;99.90;;;;;;5020368;28;20479;-68
2023/09/06 06:44:46;;;;;;;43.08;21.40;;;20.80;99.90;;;;;;5016365;28;20112;-68
2023/09/06 06:47:12;;;;;;;31.85;21.05;;;21.30;99.90;;;;;;5017986;28;20057;-68
2023/09/06 06:49:38;;;;;;;49.80;23.45;;;21.60;99.90;;;;;;5020239;28;20463;-69
2023/09/06 06:52:07;;;;;;;47.33;23.92;;;21.50;99.50;;;;;;5037588;28;20052;-69
2023/09/06 06:54:34;;;;;;;37.72;21.10;;;21.50;99.10;;;;;;5019867;28;20468;-69
2023/09/06 06:57:00;;;;;;;38.70;20.13;;;21.60;99.40;;;;;;5034542;28;20021;-69
2023/09/06 06:59:27;;;;;;;38.38;20.70;;;22.00;98.90;;;;;;5037338;28;20039;-69
2023/09/06 07:01:53;;;;;;;43.60;22.50;;;22.50;96.60;;;;;;5034407;28;20025;-69
2023/09/06 07:04:18;;;;;;;38.17;20.80;;;22.60;96.30;;;;;;5036847;28;20108;-68
2023/09/06 07:06:45;;;;;;;43.30;21.35;;;23.10;95.20;;;;;;5035679;28;20083;-69
2023/09/06 07:09:11;;;;;;;41.30;20.52;;;23.30;93.80;;;;;;5036804;28;20395;-69
2023/09/06 07:11:37;;;;;;;43.03;19.83;;;23.50;92.70;;;;;;5029389;28;20136;-69
2023/09/06 07:14:03;;;;;;;37.97;20.33;;;23.70;92.20;;;;;;5035718;28;20454;-69
2023/09/06 07:16:31;;;;;;;60.70;24.58;;;23.80;91.40;;;;;;5036914;28;20033;-69
2023/09/06 07:18:57;;;;;;;57.53;25.60;;;24.00;91.10;;;;;;5036919;28;20061;-69
2023/09/06 07:21:24;;;;;;;52.97;24.38;;;24.30;90.30;;;;;;5037017;28;20045;-69
2023/09/06 07:23:50;;;;;;;58.17;23.02;;;24.60;86.70;;;;;;5033379;28;20022;-69
2023/09/06 07:26:16;;;;;;;52.35;22.63;;;24.80;84.20;;;;;;5016990;28;20164;-69
2023/09/06 07:28:46;;;;;;;49.33;22.17;;;25.20;82.80;;;;;;5016318;28;20045;-69
2023/09/06 07:31:14;;;;;;;48.50;21.30;;;24.90;79.50;;;;;;5016963;28;20038;-69
2023/09/06 07:33:40;;;;;;;54.78;21.55;;;25.30;81.10;;;;;;5016818;28;20124;-69
2023/09/06 07:36:07;;;;;;;59.05;22.80;;;25.50;78.40;;;;;;5032080;28;20032;-69
2023/09/06 07:38:33;;;;;;;45.05;18.13;;;25.60;76.00;;;;;;5020345;28;20026;-68
2023/09/06 07:41:07;;;;;;;52.63;21.27;;;25.80;77.10;;;;;;5015393;28;20042;-69
2023/09/06 07:43:35;;;;;;;48.30;20.65;;;25.40;73.20;;;;;;5017882;28;20046;-69
2023/09/06 07:46:02;;;;;;;54.90;22.02;;;25.70;75.40;;;;;;5016601;28;20045;-69
2023/09/06 07:48:30;;;;;;;42.38;19.42;;;25.60;72.10;;;;;;5016274;28;20018;-69
2023/09/06 07:50:58;;;;;;;46.90;19.52;;;25.90;72.10;;;;;;5016645;28;20038;-69
2023/09/06 07:53:25;;;;;;;38.42;20.30;;;26.00;69.30;;;;;;5024289;28;20029;-69
2023/09/06 07:55:51;;;;;;;41.30;18.50;;;25.40;70.10;;;;;;5036130;28;20034;-70
2023/09/06 07:58:17;;;;;;;45.92;18.75;;;25.90;72.40;;;;;;5032217;28;20094;-69
2023/09/06 08:00:44;;;;;;;31.33;13.82;;;26.70;69.70;;;;;;5016302;28;20061;-69
2023/09/06 08:03:10;;;;;;;30.02;14.77;;;26.70;67.10;;;;;;5032058;28;20483;-70
2023/09/06 08:05:37;;;;;;;28.85;14.38;;;26.90;67.00;;;;;;5035982;28;20049;-70
2023/09/06 08:08:05;;;;;;;33.28;14.52;;;27.10;67.00;;;;;;5035992;28;20040;-70
2023/09/06 08:10:34;;;;;;;44.08;15.82;;;27.30;67.20;;;;;;5036310;28;20033;-70
2023/09/06 08:13:00;;;;;;;35.00;16.25;;;27.30;65.10;;;;;;5031061;28;20022;-70
2023/09/06 08:15:27;;;;;;;49.40;18.90;;;27.60;64.50;;;;;;5028004;28;20075;-69
2023/09/06 08:17:53;;;;;;;41.00;16.65;;;28.10;63.10;;;;;;5033999;28;20553;-70
2023/09/06 08:20:19;;;;;;;40.28;17.85;;;28.00;60.90;;;;;;5036561;28;20037;-70
2023/09/06 08:22:45;;;;;;;39.40;16.60;;;28.00;60.30;;;;;;5035124;28;20049;-70
2023/09/06 08:25:12;;;;;;;38.95;16.23;;;28.00;59.20;;;;;;5029879;28;20037;-70
2023/09/06 08:27:38;;;;;;;42.53;17.83;;;28.30;59.10;;;;;;5035995;28;20025;-70
2023/09/06 08:30:13;;;;;;;44.83;18.77;;;28.50;57.40;;;;;;5035798;28;20028;-69
2023/09/06 08:32:40;;;;;;;45.53;17.20;;;28.10;58.00;;;;;;5036002;28;20032;-70
2023/09/06 08:35:07;;;;;;;43.38;17.42;;;28.30;58.00;;;;;;5035682;28;20053;-71
2023/09/06 08:37:34;;;;;;;39.05;15.00;;;27.30;58.20;;;;;;5028240;28;20139;-70
2023/09/06 08:40:01;;;;;;;30.38;12.77;;;26.90;60.20;;;;;;5026284;28;20063;-70
2023/09/06 08:42:33;;;;;;;26.90;12.43;;;27.40;59.20;;;;;;5033348;28;20029;-70
2023/09/06 08:45:10;;;;;;;34.53;14.57;;;27.90;57.30;;;;;;5035247;28;20080;-71
2023/09/06 08:47:41;;;;;;;26.90;12.35;;;28.30;55.70;;;;;;5023698;28;20025;-71
2023/09/06 08:50:09;;;;;;;24.80;10.57;;;28.70;55.00;;;;;;5035448;28;20033;-70
2023/09/06 08:52:39;;;;;;;25.48;11.60;;;29.20;53.50;;;;;;5032314;28;20026;-71
2023/09/06 08:55:07;;;;;;;28.77;12.18;;;28.80;53.40;;;;;;5035544;28;20100;-71
2023/09/06 08:57:34;;;;;;;30.60;12.02;;;28.90;51.40;;;;;;5018220;28;20026;-71
2023/09/06 09:00:04;;;;;;;32.22;12.75;;;28.90;52.80;;;;;;5015262;28;20202;-70
2023/09/06 09:02:30;;;;;;;24.13;10.85;;;29.40;51.40;;;;;;5029204;28;20479;-71
2023/09/06 09:04:56;;;;;;;25.02;11.30;;;29.50;50.60;;;;;;5034780;28;20400;-71
2023/09/06 09:07:22;;;;;;;29.58;12.95;;;29.60;48.60;;;;;;5034803;28;20159;-71
2023/09/06 09:10:04;;;;;;;31.77;13.02;;;29.30;49.70;;;;;;5033271;28;20489;-71
2023/09/06 09:12:31;;;;;;;24.10;11.00;;;29.20;51.20;;;;;;5015082;28;20050;-72
2023/09/06 09:14:59;;;;;;;27.70;10.65;;;30.30;51.50;;;;;;5014951;28;20113;-71
2023/09/06 09:17:26;;;;;;;21.88;10.07;;;30.60;48.20;;;;;;5014908;28;20105;-71
2023/09/06 09:19:56;;;;;;;23.23;10.40;;;31.20;48.90;;;;;;5021865;28;20021;-71
2023/09/06 09:22:26;;;;;;;22.60;11.48;;;31.20;43.90;;;;;;5034981;28;20103;-72
2023/09/06 09:25:17;;;;;;;19.67;8.90;;;30.70;45.80;;;;;;5039208;28;20029;-72
2023/09/06 09:27:51;;;;;;;17.13;9.18;;;31.30;47.70;;;;;;5034984;28;20033;-71
2023/09/06 09:30:18;;;;;;;16.15;9.32;;;31.40;44.80;;;;;;5034396;28;20025;-71
2023/09/06 09:32:44;;;;;;;17.20;8.02;;;30.30;44.40;;;;;;5034532;28;20021;-72
2023/09/06 09:35:13;;;;;;;14.13;9.05;;;29.70;43.60;;;;;;5027764;28;20030;-72
2023/09/06 09:37:40;;;;;;;11.52;6.10;;;29.90;45.00;;;;;;5031407;28;20022;-71
2023/09/06 09:40:17;;;;;;;12.88;6.78;;;29.70;43.20;;;;;;5021199;28;20030;-71
2023/09/06 09:43:02;;;;;;;13.15;7.13;;;30.50;42.70;;;;;;5030580;28;20025;-72
2023/09/06 09:45:29;;;;;;;13.93;6.60;;;29.90;42.50;;;;;;5033361;28;20452;-71
2023/09/06 09:47:58;;;;;;;9.82;6.03;;;30.40;42.30;;;;;;5039243;28;20048;-72
2023/09/06 09:50:29;;;;;;;10.98;5.80;;;31.00;43.10;;;;;;5031118;28;20116;-71
2023/09/06 09:52:56;;;;;;;10.23;5.45;;;31.80;40.90;;;;;;5027703;28;20022;-72
2023/09/06 09:55:31;;;;;;;10.93;5.82;;;31.60;38.10;;;;;;5034403;28;20103;-72
2023/09/06 09:57:58;;;;;;;7.40;4.60;;;30.80;39.10;;;;;;5027730;28;20228;-72
2023/09/06 10:00:28;;;;;;;9.50;4.97;;;31.60;37.30;;;;;;5022949;28;20498;-72
2023/09/06 10:02:57;;;;;;;8.13;5.07;;;32.30;36.30;;;;;;5032597;28;20029;-72
2023/09/06 10:05:29;;;;;;;26.60;7.40;;;32.90;35.40;;;;;;5033363;28;20065;-71
2023/09/06 10:08:00;;;;;;;9.20;5.18;;;33.10;35.30;;;;;;5033823;28;20037;-72
2023/09/06 10:10:27;;;;;;;13.73;6.25;;;33.20;34.00;;;;;;5016391;28;20030;-72
2023/09/06 10:12:56;;;;;;;9.98;5.65;;;32.60;34.30;;;;;;5013237;28;20030;-72
2023/09/06 10:15:24;;;;;;;9.40;5.97;;;32.80;35.60;;;;;;5014302;28;20054;-72
2023/09/06 10:17:54;;;;;;;8.63;5.00;;;31.80;35.30;;;;;;5014147;28;20444;-69
2023/09/06 10:20:27;;;;;;;12.07;5.68;;;30.20;36.70;;;;;;5014545;28;20030;-69
2023/09/06 10:22:56;;;;;;;12.88;7.18;;;29.40;37.90;;;;;;5014136;28;20080;-69
2023/09/06 10:25:22;;;;;;;11.48;7.13;;;28.80;39.70;;;;;;5029917;28;20038;-69
2023/09/06 10:27:53;;;;;;;12.27;6.25;;;29.30;40.70;;;;;;5034106;28;20414;-69
2023/09/06 10:30:40;;;;;;;14.55;5.50;;;29.80;40.00;;;;;;5027572;28;20029;-70
2023/09/06 10:33:28;;;;;;;8.57;5.32;;;29.20;39.30;;;;;;5019248;28;20113;-69
2023/09/06 10:35:58;;;;;;;12.80;5.88;;;29.10;38.50;;;;;;5033517;28;20446;-69
2023/09/06 10:38:24;;;;;;;12.98;6.70;;;28.80;39.00;;;;;;5030107;28;20472;-69
2023/09/06 10:40:50;;;;;;;7.78;5.53;;;28.30;39.60;;;;;;5031655;28;20035;-69
2023/09/06 10:43:28;;;;;;;13.77;5.63;;;28.60;39.40;;;;;;5034411;28;20033;-69
2023/09/06 10:45:58;;;;;;;12.23;5.13;;;28.90;42.70;;;;;;5021225;28;20080;-69
2023/09/06 10:48:25;;;;;;;7.95;5.47;;;29.30;43.30;;;;;;5018487;28;20037;-69
2023/09/06 10:51:07;;;;;;;21.27;7.43;;;30.00;38.40;;;;;;5018358;28;20352;-69
2023/09/06 10:53:34;;;;;;;9.60;5.78;;;29.60;37.50;;;;;;5026896;28;20029;-69
2023/09/06 10:56:03;;;;;;;8.48;4.63;;;29.70;38.00;;;;;;5038369;28;20021;-68
2023/09/06 10:58:32;;;;;;;12.10;5.65;;;29.90;38.60;;;;;;5037568;28;20028;-68
2023/09/06 11:01:18;;;;;;;9.35;5.80;;;30.50;38.80;;;;;;5037577;28;20076;-69
2023/09/06 11:03:50;;;;;;;4.60;3.75;;;31.00;36.10;;;;;;5037695;28;20025;-69
2023/09/06 11:06:18;;;;;;;4.68;3.78;;;31.50;34.30;;;;;;5037833;28;20095;-69
2023/09/06 11:08:46;;;;;;;10.52;4.18;;;31.70;33.40;;;;;;5035682;28;20037;-69
2023/09/06 11:11:14;;;;;;;11.68;5.18;;;31.70;30.00;;;;;;5037242;28;20021;-70
2023/09/06 11:13:42;;;;;;;12.70;4.22;;;31.40;30.10;;;;;;5037931;28;20021;-69
2023/09/06 11:16:15;;;;;;;9.98;4.35;;;30.60;29.60;;;;;;5037627;28;20022;-70
2023/09/06 11:18:50;;;;;;;5.28;4.00;;;30.30;31.30;;;;;;5038130;28;20060;-70
2023/09/06 11:21:18;;;;;;;10.90;5.40;;;29.80;31.20;;;;;;5037854;28;20387;-69
2023/09/06 11:23:48;;;;;;;6.00;4.57;;;29.90;32.10;;;;;;5036049;28;20110;-69
2023/09/06 11:26:15;;;;;;;7.28;4.07;;;30.00;31.30;;;;;;5032416;28;20368;-70
2023/09/06 11:28:43;;;;;;;7.35;4.05;;;30.70;32.10;;;;;;5036498;28;20053;-69
2023/09/06 11:31:25;;;;;;;9.13;4.70;;;30.30;29.80;;;;;;5036748;28;20032;-69
2023/09/06 11:33:55;;;;;;;9.90;4.75;;;30.50;29.40;;;;;;5029354;28;20022;-69
2023/09/06 11:36:30;;;;;;;5.40;3.92;;;30.30;28.90;;;;;;5017815;28;20026;-69
2023/09/06 11:39:15;;;;;;;8.32;4.57;;;31.10;30.50;;;;;;5028560;28;20033;-70
2023/09/06 11:41:43;;;;;;;8.13;4.22;;;31.40;29.60;;;;;;5019300;28;20030;-70
2023/09/06 11:44:13;;;;;;;9.80;4.80;;;32.30;32.10;;;;;;5027830;28;20090;-69
2023/09/06 11:46:48;;;;;;;5.30;3.70;;;31.40;28.20;;;;;;5016729;28;20452;-69
2023/09/06 11:49:15;;;;;;;5.97;4.20;;;31.60;28.90;;;;;;5018981;28;20386;-70
2023/09/06 11:51:43;;;;;;;5.47;3.95;;;30.50;28.60;;;;;;5029854;28;20035;-69
2023/09/06 11:54:09;;;;;;;8.90;4.78;;;30.10;29.90;;;;;;5029983;28;20025;-70
2023/09/06 11:56:39;;;;;;;8.30;5.38;;;30.60;29.00;;;;;;5027623;28;20056;-70
2023/09/06 11:59:12;;;;;;;12.63;4.75;;;31.10;29.20;;;;;;5029869;28;20108;-70
2023/09/06 12:01:44;;;;;;;11.73;5.13;;;31.60;28.00;;;;;;5036211;28;20083;-70
2023/09/06 12:04:16;;;;;;;11.18;4.13;;;31.60;26.80;;;;;;5024612;28;20041;-70
2023/09/06 12:06:42;;;;;;;11.38;4.13;;;31.70;28.00;;;;;;5023016;28;20037;-70
2023/09/06 12:09:12;;;;;;;10.07;4.78;;;32.10;29.10;;;;;;5030669;28;20444;-70
2023/09/06 12:11:38;;;;;;;7.53;4.85;;;32.50;26.40;;;;;;5034812;28;20025;-71
2023/09/06 12:14:04;;;;;;;10.52;4.32;;;31.00;28.60;;;;;;5027411;28;20071;-70
2023/09/06 12:16:31;;;;;;;9.50;4.40;;;31.40;27.70;;;;;;5019297;28;20018;-70
2023/09/06 12:18:57;;;;;;;6.30;3.58;;;31.00;28.10;;;;;;5035903;28;20037;-70
2023/09/06 12:21:22;;;;;;;8.63;4.50;;;31.10;27.70;;;;;;5035541;28;20033;-70
2023/09/06 12:23:49;;;;;;;7.85;4.70;;;30.80;29.00;;;;;;5035699;28;20083;-71
2023/09/06 12:26:17;;;;;;;5.05;4.03;;;30.50;29.20;;;;;;5034639;28;20505;-70
2023/09/06 12:28:43;;;;;;;11.85;5.10;;;30.50;29.80;;;;;;5032555;28;20032;-70
2023/09/06 12:31:09;;;;;;;6.45;4.57;;;30.90;29.50;;;;;;5035043;28;20030;-71
2023/09/06 12:33:36;;;;;;;8.75;4.68;;;30.40;30.00;;;;;;5036047;28;20083;-70
2023/09/06 12:36:04;;;;;;;6.22;4.35;;;31.00;29.60;;;;;;5035298;28;20025;-71
2023/09/06 12:38:31;;;;;;;8.57;5.93;;;31.60;29.90;;;;;;5036068;28;20564;-70
2023/09/06 12:40:58;;;;;;;14.48;5.53;;;32.10;28.60;;;;;;5035939;28;20056;-69